Parma Airport

LIMP · Emilia-Romagna, 意大利

罗盘
风向 的 风向 的 风向 到 风向 340° Parma Airport 2/20
风: 3 kt, 1 beaufort

2 kt

2 kt
改变
0 ft 1.000 2.000 3.000 4.000 5.000
Cloud Cloud
FEW 500
Cloud Cloud Cloud Cloud Cloud Cloud
BKN 1.000
METAR LIMP 281150Z 34003KT 310V010 2000 -RA BR FEW005 BKN010 11/11 Q1017

METAR Parma Airport - LIMP/PMF

Parma Airport是,意大利中的中型机场。 该机场位于纬度44,82680和经度10,29710。 该机场有一条跑道: 2/20. 本场的ICAO机场代码为LIMP。 该机场的IATA代码为PMF。 机场在Milano FIR中。

该航空气象观测是针对Parma Airport在2024年2月28日 12:50, 当地时间进行的。

机场观察

风向为340°,速度为3 kt。 风向在310°和010°之间变化。

可见度为2 km。

有几云在500 ft的高度 和 碎云在1.000 ft的高度。 破损或更高的上限为1.000 ft。

当前天气为光 雨, 薄雾。 温度和风寒是11 °C。 露点为11 °C,相对湿度为100%。 海平面上的气压为1017 hPa (QNH)。

白天

今天,太阳从06:58升起,在18:03降落。 这适用于Parma Airport,世界夏令时可能有所不同。 当地时间与世界标准时间之间的时差为+1 小时。 当前,没有夏令时有效。

公司介绍

我们没有关于这个机场的公司信息。

体会

到Vliegles.nl去找飞行课程,跳伞和其他飞行体验。 浏览页面,了解Parma Airport附近所有可用的活动。 你也可以使用搜索功能来寻找你所在地附近的特定飞行课程、跳伞或其他飞行体验。

跑道

Id 标题 侧风 逆风 侧风 %
2/20 016°-196° 2 kt 2 kt 59 %

逆风成分最大的方向会被突出显示,并用于横风计算。 这并不一定意味着这个方向在使用。

乌云

500 ft FEW 几云
1.000 ft BKN 碎云

温度 & 天气

天气 光 雨
薄雾
温度 11 °C
露点 11 °C
相对湿度 100%
Kp-index 0 (0-9)

白天

日出
06:58
中午
12:31
日落
18:03 (4:17)

小工具

你想在你的网站上有一个关于Parma Airport的当前航空天气(METAR)的小部件吗?

显示HTML代码
?>